This is the latest recevied weather packets stored in our database for station/object K5WNG. If no packets are shown the sender has not sent any weather packets the latest 1 day(s).
| Time | Temp. | Humidity | Pressure | Rain* | Wind** | Luminosity | Snow |
|---|---|---|---|---|---|---|---|
| 1778083220 | 17.78° C | 92% | 1013.1 hPa | 0.25 mm | - | 128 W/m² | - |
| 1778082617 | 18.33° C | 91% | 1013.1 hPa | 0.25 mm | - | 40 W/m² | - |
| 1778082329 | 18.89° C | 90% | 1012.7 hPa | 0.25 mm | - | 53 W/m² | - |
| 1778081432 | 20° C | 89% | 1012.5 hPa | 0 mm | - | 66 W/m² | - |
| 1778080832 | 21.67° C | 86% | 1012 hPa | 0 mm | - | 37 W/m² | - |
| 1778079329 | 25.56° C | 85% | 1010.8 hPa | 0 mm | - | 174 W/m² | - |
| 1778077533 | 25.56° C | 84% | 1010.1 hPa | 0 mm | - | 292 W/m² | - |
| 1778077230 | 25.56° C | 85% | 1009.9 hPa | 0 mm | - | 300 W/m² | - |
| 1778076330 | 25° C | 87% | 1010.2 hPa | 0 mm | - | 200 W/m² | - |
| 1778076030 | 25° C | 87% | 1010.3 hPa | 0 mm | - | 189 W/m² | - |
| 1778075730 | 25° C | 87% | 1010.3 hPa | 0 mm | - | 173 W/m² | - |
| 1778075419 | 25° C | 88% | 1009.9 hPa | 0 mm | - | 177 W/m² | - |
| 1778074830 | 24.44° C | 89% | 1009.7 hPa | 0 mm | - | 163 W/m² | - |
| 1778073920 | 23.89° C | 90% | 1009.7 hPa | 0 mm | - | 126 W/m² | - |
| 1778072416 | 23.33° C | 93% | 1009.5 hPa | 0 mm | - | 65 W/m² | - |
| 1778071816 | 23.33° C | 94% | 1009.3 hPa | 0 mm | - | 60 W/m² | - |
| 1778070916 | 22.78° C | 95% | 1009.2 hPa | 0 mm | - | 40 W/m² | - |
| 1778070020 | 22.78° C | 96% | 1009.2 hPa | 0 mm | - | 24 W/m² | - |
| 1778068517 | 23.33° C | 94% | 1009.1 hPa | 0 mm | - | 6 W/m² | - |
| 1778068220 | 23.33° C | 94% | 1009 hPa | 0 mm | - | 3 W/m² | - |
| 1778067917 | 23.33° C | 94% | 1009.1 hPa | 0 mm | - | 2 W/m² | - |
| 1778067321 | 23.33° C | 94% | 1009.2 hPa | 0 mm | - | 0 W/m² | - |
| 1778067018 | 23.33° C | 94% | 1009.2 hPa | 0 mm | - | 0 W/m² | - |
| 1778065518 | 23.33° C | 95% | 1009.1 hPa | 0 mm | - | 0 W/m² | - |
| 1778065218 | 23.33° C | 95% | 1009.1 hPa | 0 mm | - | 0 W/m² | - |
* Rain latest hour (hover to see other rain measurements)
** Current wind speed in m/s (hover to see current wind gust speed)